Time;durP1;ratioP1;P1;durP2;ratioP2;P2;SDS_P1;SDS_P2;PMS_P1;PMS_P2;Temp;Humidity;BMP_temperature;BMP_pressure;BME280_temperature;BME280_humidity;BME280_pressure;Samples;Min_cycle;Max_cycle;Signal;HPM_P1;HPM_P2
2021/09/09 00:02:07;;;;;;;22.60;13.73;;;;;;;;;;4979384;28;20293;-83
2021/09/09 00:04:34;;;;;;;21.57;11.93;;;;;;;;;;4981355;28;20205;-82
2021/09/09 00:07:01;;;;;;;21.73;12.10;;;;;;;;;;4983242;28;20248;-84
2021/09/09 00:09:30;;;;;;;25.30;13.20;;;;;;;;;;4982528;28;20216;-83
2021/09/09 00:11:57;;;;;;;25.83;13.30;;;;;;;;;;4986457;28;20284;-84
2021/09/09 00:14:24;;;;;;;27.93;13.03;;;;;;;;;;4982890;28;20216;-84
2021/09/09 00:16:51;;;;;;;25.30;12.87;;;;;;;;;;4982307;28;20296;-82
2021/09/09 00:19:18;;;;;;;24.50;13.43;;;;;;;;;;4981800;28;20269;-83
2021/09/09 00:21:46;;;;;;;23.60;12.97;;;;;;;;;;4979524;28;20233;-83
2021/09/09 00:24:13;;;;;;;23.67;13.37;;;;;;;;;;4984665;28;20213;-82
2021/09/09 00:26:42;;;;;;;27.10;13.40;;;;;;;;;;4982070;28;20253;-83
2021/09/09 00:29:09;;;;;;;20.97;12.23;;;;;;;;;;4982011;28;20304;-82
2021/09/09 00:31:36;;;;;;;28.80;13.20;;;;;;;;;;4984048;28;20292;-84
2021/09/09 00:34:04;;;;;;;22.13;13.00;;;;;;;;;;4985161;28;20460;-84
2021/09/09 00:36:31;;;;;;;27.43;13.50;;;;;;;;;;4980595;28;20228;-83
2021/09/09 00:38:58;;;;;;;28.63;13.03;;;;;;;;;;4984697;28;20271;-83
2021/09/09 00:41:26;;;;;;;25.17;13.03;;;;;;;;;;4982593;28;20293;-84
2021/09/09 00:43:54;;;;;;;22.73;12.73;;;;;;;;;;4987864;28;20229;-81
2021/09/09 00:46:23;;;;;;;23.40;12.47;;;;;;;;;;5001889;28;20216;-81
2021/09/09 00:48:50;;;;;;;23.60;13.03;;;;;;;;;;4998757;28;20261;-82
2021/09/09 00:51:17;;;;;;;26.17;12.00;;;;;;;;;;4986635;28;20230;-83
2021/09/09 00:53:45;;;;;;;22.87;12.27;;;;;;;;;;4980148;28;20659;-82
2021/09/09 00:56:12;;;;;;;21.20;12.60;;;;;;;;;;4983476;28;20208;-84
2021/09/09 00:58:42;;;;;;;18.50;11.03;;;;;;;;;;4978597;28;20285;-84
2021/09/09 01:01:10;;;;;;;21.57;12.70;;;;;;;;;;4981942;28;20733;-83
2021/09/09 01:03:37;;;;;;;28.13;12.43;;;;;;;;;;4981570;28;20228;-83
2021/09/09 01:06:05;;;;;;;20.50;12.57;;;;;;;;;;4980137;28;20377;-84
2021/09/09 01:08:32;;;;;;;21.73;11.93;;;;;;;;;;4980405;28;20217;-83
2021/09/09 01:10:59;;;;;;;22.53;12.40;;;;;;;;;;4979467;28;20236;-82
2021/09/09 01:13:26;;;;;;;22.07;12.27;;;;;;;;;;4980748;28;20205;-83
2021/09/09 01:15:53;;;;;;;21.47;12.93;;;;;;;;;;4981608;28;20205;-83
2021/09/09 01:18:22;;;;;;;24.97;13.43;;;;;;;;;;4977769;28;20222;-83
2021/09/09 01:20:49;;;;;;;23.50;12.83;;;;;;;;;;4982717;28;20584;-83
2021/09/09 01:23:17;;;;;;;23.03;12.40;;;;;;;;;;4983413;28;20237;-83
2021/09/09 01:25:46;;;;;;;21.53;12.87;;;;;;;;;;4980290;28;20682;-83
2021/09/09 01:28:13;;;;;;;21.00;12.90;;;;;;;;;;4981268;28;20226;-84
2021/09/09 01:30:40;;;;;;;22.27;11.73;;;;;;;;;;4982265;28;20661;-84
2021/09/09 01:33:07;;;;;;;22.30;12.77;;;;;;;;;;4978924;28;20208;-84
2021/09/09 01:35:34;;;;;;;24.93;13.20;;;;;;;;;;4978140;28;20216;-84
2021/09/09 01:38:02;;;;;;;21.70;12.47;;;;;;;;;;4980933;28;20260;-83
2021/09/09 01:40:29;;;;;;;22.27;12.27;;;;;;;;;;4973547;28;20304;-82
2021/09/09 01:42:58;;;;;;;23.57;12.27;;;;;;;;;;4981373;28;20640;-82
2021/09/09 01:45:26;;;;;;;20.13;11.67;;;;;;;;;;4981132;28;20677;-83
2021/09/09 01:47:53;;;;;;;21.07;12.83;;;;;;;;;;4975460;28;20233;-84
2021/09/09 01:50:20;;;;;;;24.50;12.67;;;;;;;;;;4978464;28;20623;-83
2021/09/09 01:52:47;;;;;;;23.17;12.10;;;;;;;;;;4978402;28;20206;-83
2021/09/09 01:55:15;;;;;;;21.57;12.60;;;;;;;;;;4976958;28;20316;-84
2021/09/09 01:57:42;;;;;;;22.80;12.50;;;;;;;;;;4983765;28;20316;-83
2021/09/09 02:00:12;;;;;;;21.90;12.00;;;;;;;;;;4983778;28;20278;-83
2021/09/09 02:02:39;;;;;;;21.47;13.00;;;;;;;;;;4983734;28;20271;-82
2021/09/09 02:05:06;;;;;;;20.03;12.40;;;;;;;;;;4987408;28;20216;-82
2021/09/09 02:07:33;;;;;;;25.93;12.57;;;;;;;;;;4990082;28;20233;-83
2021/09/09 02:10:01;;;;;;;26.87;12.30;;;;;;;;;;4983926;28;20670;-83
2021/09/09 02:12:28;;;;;;;20.60;12.13;;;;;;;;;;4989340;28;20199;-84
2021/09/09 02:14:55;;;;;;;22.00;12.37;;;;;;;;;;4986494;28;20715;-84
2021/09/09 02:17:24;;;;;;;24.83;11.93;;;;;;;;;;4988788;28;20610;-83
2021/09/09 02:19:51;;;;;;;23.80;13.07;;;;;;;;;;4980876;28;20322;-83
2021/09/09 02:22:18;;;;;;;26.53;12.77;;;;;;;;;;4991452;28;20278;-84
2021/09/09 02:24:46;;;;;;;23.87;13.37;;;;;;;;;;4997131;28;20228;-82
2021/09/09 02:27:13;;;;;;;20.67;12.40;;;;;;;;;;5007319;28;20219;-82
2021/09/09 02:29:41;;;;;;;21.23;11.53;;;;;;;;;;5010221;28;20355;-81
2021/09/09 02:32:08;;;;;;;25.33;12.13;;;;;;;;;;4996148;28;20210;-83
2021/09/09 02:34:37;;;;;;;27.27;11.63;;;;;;;;;;4985271;28;20315;-84
2021/09/09 02:37:04;;;;;;;21.47;11.20;;;;;;;;;;4984461;28;20701;-82
2021/09/09 02:39:32;;;;;;;27.63;12.20;;;;;;;;;;4981601;28;20651;-81
2021/09/09 02:41:59;;;;;;;25.20;12.30;;;;;;;;;;4983537;28;20326;-83
2021/09/09 02:44:26;;;;;;;22.50;12.13;;;;;;;;;;4982502;28;20201;-82
2021/09/09 02:46:53;;;;;;;22.93;11.97;;;;;;;;;;4984789;28;20229;-83
2021/09/09 02:49:20;;;;;;;24.10;12.17;;;;;;;;;;4986118;28;20237;-83
2021/09/09 02:51:49;;;;;;;21.57;11.73;;;;;;;;;;4983043;28;20208;-83
2021/09/09 02:54:16;;;;;;;22.90;12.00;;;;;;;;;;4986823;28;20309;-82
2021/09/09 02:56:43;;;;;;;19.83;11.67;;;;;;;;;;4989568;28;20272;-82
2021/09/09 02:59:10;;;;;;;23.07;11.83;;;;;;;;;;4983828;28;20205;-82
2021/09/09 03:01:38;;;;;;;23.27;11.60;;;;;;;;;;4994678;28;20236;-84
2021/09/09 03:04:05;;;;;;;21.17;12.30;;;;;;;;;;4990998;28;21132;-83
2021/09/09 03:06:32;;;;;;;22.37;11.97;;;;;;;;;;4989576;28;20233;-83
2021/09/09 03:09:01;;;;;;;23.17;11.63;;;;;;;;;;4993713;28;20213;-83
2021/09/09 03:11:28;;;;;;;24.20;12.17;;;;;;;;;;4989736;28;20210;-84
2021/09/09 03:13:55;;;;;;;22.47;11.93;;;;;;;;;;4991840;28;20240;-84
2021/09/09 03:16:22;;;;;;;22.80;12.00;;;;;;;;;;4989439;28;20492;-84
2021/09/09 03:18:50;;;;;;;23.03;12.47;;;;;;;;;;4987449;28;20225;-83
2021/09/09 03:21:17;;;;;;;21.63;11.77;;;;;;;;;;4991080;28;20273;-82
2021/09/09 03:23:44;;;;;;;24.20;12.03;;;;;;;;;;4994187;28;20205;-84
2021/09/09 03:26:13;;;;;;;27.47;11.77;;;;;;;;;;4989737;28;20368;-82
2021/09/09 03:28:40;;;;;;;23.50;11.93;;;;;;;;;;4992182;28;20269;-84
2021/09/09 03:31:07;;;;;;;24.63;11.50;;;;;;;;;;4986088;28;20563;-84
2021/09/09 03:33:34;;;;;;;20.73;12.10;;;;;;;;;;4990259;28;20248;-83
2021/09/09 03:36:01;;;;;;;19.73;12.33;;;;;;;;;;4988903;28;20201;-81
2021/09/09 03:38:28;;;;;;;22.00;12.30;;;;;;;;;;4989773;28;20222;-81
2021/09/09 03:40:55;;;;;;;27.50;12.47;;;;;;;;;;4985730;28;20236;-82
2021/09/09 03:43:24;;;;;;;21.33;12.20;;;;;;;;;;4988217;28;20628;-83
2021/09/09 03:45:51;;;;;;;27.27;12.47;;;;;;;;;;4987274;28;20228;-82
2021/09/09 03:48:18;;;;;;;23.60;12.00;;;;;;;;;;4991187;28;20222;-83
2021/09/09 03:50:45;;;;;;;22.60;11.17;;;;;;;;;;4992019;28;20304;-83
2021/09/09 03:53:13;;;;;;;20.53;11.43;;;;;;;;;;4991849;28;20229;-84
2021/09/09 03:55:40;;;;;;;19.10;11.67;;;;;;;;;;4990232;28;20251;-83
2021/09/09 03:58:07;;;;;;;18.67;11.23;;;;;;;;;;4991357;28;20296;-84
2021/09/09 04:00:36;;;;;;;19.53;11.07;;;;;;;;;;4988552;28;20206;-83
2021/09/09 04:03:03;;;;;;;22.17;11.10;;;;;;;;;;4990649;28;20325;-84
2021/09/09 04:05:30;;;;;;;26.70;11.33;;;;;;;;;;4990759;28;20296;-82
2021/09/09 04:07:58;;;;;;;24.03;11.23;;;;;;;;;;5000271;28;20284;-81
2021/09/09 04:10:25;;;;;;;24.33;11.67;;;;;;;;;;5000687;28;20210;-81
2021/09/09 04:12:52;;;;;;;21.57;11.13;;;;;;;;;;5002362;28;20216;-82
2021/09/09 04:15:19;;;;;;;17.40;10.57;;;;;;;;;;4989325;28;20965;-83
2021/09/09 04:17:48;;;;;;;20.83;11.17;;;;;;;;;;4988016;28;20217;-84
2021/09/09 04:20:15;;;;;;;19.47;11.03;;;;;;;;;;4982078;28;20376;-84
2021/09/09 04:22:42;;;;;;;23.40;10.73;;;;;;;;;;4992251;28;20547;-84
2021/09/09 04:25:10;;;;;;;21.10;11.50;;;;;;;;;;4981449;28;20240;-84
2021/09/09 04:27:37;;;;;;;25.40;12.47;;;;;;;;;;4984707;28;20277;-83
2021/09/09 04:30:05;;;;;;;24.60;12.43;;;;;;;;;;4982826;28;20217;-83
2021/09/09 04:32:32;;;;;;;21.30;12.67;;;;;;;;;;4986066;28;20692;-83
2021/09/09 04:35:00;;;;;;;24.57;11.57;;;;;;;;;;4980686;28;20268;-83
2021/09/09 04:37:28;;;;;;;21.37;11.93;;;;;;;;;;4978023;28;20214;-83
2021/09/09 04:39:55;;;;;;;22.03;12.53;;;;;;;;;;4973420;28;20595;-83
2021/09/09 04:42:22;;;;;;;23.07;11.80;;;;;;;;;;4975110;28;20294;-82
2021/09/09 04:44:49;;;;;;;24.37;12.30;;;;;;;;;;4977511;28;20228;-84
2021/09/09 04:47:16;;;;;;;29.10;11.90;;;;;;;;;;4979070;28;20731;-83
2021/09/09 04:49:44;;;;;;;18.87;11.30;;;;;;;;;;4979572;28;20210;-84
2021/09/09 04:52:12;;;;;;;18.67;11.53;;;;;;;;;;4976628;28;20205;-84
2021/09/09 04:54:39;;;;;;;22.33;11.43;;;;;;;;;;4972845;28;20327;-86
2021/09/09 04:57:07;;;;;;;20.20;10.70;;;;;;;;;;4978059;28;20499;-85
2021/09/09 04:59:34;;;;;;;24.50;11.53;;;;;;;;;;4980786;28;20814;-84
2021/09/09 05:02:02;;;;;;;18.87;10.67;;;;;;;;;;4978157;28;20659;-85
2021/09/09 05:04:30;;;;;;;15.60;10.30;;;;;;;;;;4975927;28;20760;-86
2021/09/09 05:06:57;;;;;;;18.93;10.67;;;;;;;;;;4979967;28;20228;-83
2021/09/09 05:09:25;;;;;;;20.10;11.33;;;;;;;;;;4970083;28;20205;-83
2021/09/09 05:11:53;;;;;;;19.13;11.10;;;;;;;;;;4974402;28;20662;-84
2021/09/09 05:14:20;;;;;;;25.43;11.83;;;;;;;;;;4977053;28;20229;-84
2021/09/09 05:16:47;;;;;;;20.53;11.37;;;;;;;;;;4979226;28;20221;-84
2021/09/09 05:19:14;;;;;;;24.33;11.07;;;;;;;;;;4983289;28;20213;-84
2021/09/09 05:21:41;;;;;;;20.97;11.07;;;;;;;;;;4978128;28;20356;-83
2021/09/09 05:24:09;;;;;;;21.43;11.53;;;;;;;;;;4983950;28;20697;-84
2021/09/09 05:26:37;;;;;;;22.10;11.03;;;;;;;;;;4986385;28;20654;-85
2021/09/09 05:29:04;;;;;;;27.70;10.77;;;;;;;;;;4991715;28;20210;-84
2021/09/09 05:31:32;;;;;;;26.10;11.40;;;;;;;;;;4988674;28;20228;-84
2021/09/09 05:33:59;;;;;;;19.47;10.87;;;;;;;;;;4990262;28;20240;-84
2021/09/09 05:36:26;;;;;;;23.73;11.10;;;;;;;;;;4982873;28;20212;-85
2021/09/09 05:38:54;;;;;;;21.47;11.33;;;;;;;;;;4993109;28;20272;-82
2021/09/09 05:41:22;;;;;;;19.33;10.97;;;;;;;;;;4992106;28;20216;-83
2021/09/09 05:43:50;;;;;;;21.87;10.87;;;;;;;;;;4992334;28;20297;-85
2021/09/09 05:46:17;;;;;;;19.70;10.77;;;;;;;;;;4991768;28;20236;-84
2021/09/09 05:48:45;;;;;;;19.77;11.37;;;;;;;;;;4997004;28;20210;-83
2021/09/09 05:51:12;;;;;;;20.73;10.93;;;;;;;;;;5002172;28;20227;-83
2021/09/09 05:53:39;;;;;;;18.03;10.07;;;;;;;;;;5003932;28;20193;-83
2021/09/09 05:56:06;;;;;;;16.23;9.73;;;;;;;;;;4984661;28;20198;-85
2021/09/09 05:58:35;;;;;;;29.80;9.53;;;;;;;;;;4979924;28;20671;-83
2021/09/09 06:01:03;;;;;;;23.63;9.60;;;;;;;;;;4974304;28;20205;-84
2021/09/09 06:03:31;;;;;;;22.13;8.43;;;;;;;;;;4980784;28;20209;-85
2021/09/09 06:06:03;;;;;;;25.10;8.33;;;;;;;;;;4977534;28;20233;-85
2021/09/09 06:08:32;;;;;;;20.40;8.97;;;;;;;;;;4976179;28;20232;-85
2021/09/09 06:11:00;;;;;;;24.80;8.17;;;;;;;;;;4978011;28;20272;-85
2021/09/09 06:13:27;;;;;;;25.00;8.57;;;;;;;;;;4982280;28;20283;-85
2021/09/09 06:15:54;;;;;;;16.00;7.97;;;;;;;;;;4986757;28;20220;-85
2021/09/09 06:18:23;;;;;;;18.57;7.93;;;;;;;;;;4980046;28;20765;-83
2021/09/09 06:20:50;;;;;;;21.93;9.33;;;;;;;;;;4976447;28;20230;-84
2021/09/09 06:23:17;;;;;;;18.87;8.20;;;;;;;;;;4979681;28;20658;-85
2021/09/09 06:25:44;;;;;;;20.93;8.10;;;;;;;;;;4976813;28;20682;-84
2021/09/09 06:28:11;;;;;;;24.43;8.47;;;;;;;;;;4986488;28;20238;-84
2021/09/09 06:30:39;;;;;;;14.63;8.60;;;;;;;;;;4976470;28;20210;-84
2021/09/09 06:33:06;;;;;;;12.80;7.80;;;;;;;;;;4978140;28;20216;-84
2021/09/09 06:35:35;;;;;;;15.20;8.10;;;;;;;;;;4977175;28;20237;-85
2021/09/09 06:38:02;;;;;;;17.00;8.67;;;;;;;;;;4984683;28;20233;-85
2021/09/09 06:40:29;;;;;;;20.03;8.30;;;;;;;;;;4973185;28;20294;-85
2021/09/09 06:42:57;;;;;;;15.43;8.87;;;;;;;;;;4976392;28;20212;-85
2021/09/09 06:45:25;;;;;;;14.77;9.07;;;;;;;;;;4964132;28;20219;-85
2021/09/09 06:47:52;;;;;;;11.50;8.30;;;;;;;;;;4960548;28;20237;-86
2021/09/09 06:50:19;;;;;;;15.60;8.83;;;;;;;;;;4966463;28;20243;-85
2021/09/09 06:52:48;;;;;;;14.80;8.63;;;;;;;;;;4961599;28;20274;-85
2021/09/09 06:55:15;;;;;;;14.47;8.83;;;;;;;;;;4958671;28;20236;-86
2021/09/09 06:57:42;;;;;;;13.57;8.23;;;;;;;;;;4965187;28;20691;-85
2021/09/09 07:00:10;;;;;;;14.07;7.90;;;;;;;;;;4961189;28;20689;-86
2021/09/09 07:02:37;;;;;;;13.43;7.90;;;;;;;;;;4966339;28;20482;-85
2021/09/09 07:05:11;;;;;;;14.83;8.43;;;;;;;;;;4967271;28;20213;-86
2021/09/09 07:07:38;;;;;;;18.13;9.10;;;;;;;;;;4965531;28;20261;-86
2021/09/09 07:10:08;;;;;;;13.80;8.77;;;;;;;;;;4970485;28;20649;-86
2021/09/09 07:12:35;;;;;;;14.17;8.83;;;;;;;;;;4964849;28;20209;-85
2021/09/09 07:15:02;;;;;;;14.20;9.20;;;;;;;;;;4966156;28;20252;-86
2021/09/09 07:17:33;;;;;;;13.33;8.70;;;;;;;;;;4964667;28;20233;-86
2021/09/09 07:20:01;;;;;;;14.80;9.07;;;;;;;;;;4966130;28;20211;-86
2021/09/09 07:22:28;;;;;;;15.53;8.53;;;;;;;;;;4969162;28;20268;-86
2021/09/09 07:24:57;;;;;;;12.70;8.07;;;;;;;;;;4968708;28;20209;-85
2021/09/09 07:27:25;;;;;;;15.73;9.10;;;;;;;;;;4987555;28;20935;-83
2021/09/09 07:29:52;;;;;;;14.67;8.80;;;;;;;;;;4983217;28;20257;-83
2021/09/09 07:32:20;;;;;;;17.13;7.83;;;;;;;;;;4990530;28;20190;-83
2021/09/09 07:34:47;;;;;;;15.70;9.20;;;;;;;;;;4992545;28;20423;-83
2021/09/09 07:37:14;;;;;;;14.67;8.70;;;;;;;;;;4979210;28;20627;-85
2021/09/09 07:39:41;;;;;;;13.57;7.50;;;;;;;;;;4985061;28;20237;-85
2021/09/09 07:42:09;;;;;;;19.23;8.53;;;;;;;;;;4974870;28;20226;-87
2021/09/09 07:44:37;;;;;;;19.57;9.33;;;;;;;;;;4962653;28;20237;-84
2021/09/09 07:47:07;;;;;;;14.03;8.53;;;;;;;;;;4977940;28;20220;-84
2021/09/09 07:49:34;;;;;;;19.77;9.40;;;;;;;;;;4985422;28;20756;-84
2021/09/09 07:52:01;;;;;;;16.80;9.03;;;;;;;;;;4990279;28;21123;-85
2021/09/09 07:54:30;;;;;;;16.77;9.37;;;;;;;;;;4981494;28;20847;-86
2021/09/09 07:56:57;;;;;;;16.00;9.00;;;;;;;;;;4974030;28;20281;-85
2021/09/09 07:59:26;;;;;;;19.30;9.20;;;;;;;;;;4974502;28;20212;-85
2021/09/09 08:01:54;;;;;;;15.27;8.17;;;;;;;;;;4986809;28;20340;-84
2021/09/09 08:04:23;;;;;;;15.20;8.30;;;;;;;;;;4987808;28;20760;-85
2021/09/09 08:06:50;;;;;;;12.13;7.60;;;;;;;;;;4979010;28;20264;-85
2021/09/09 08:09:17;;;;;;;20.77;9.10;;;;;;;;;;4966844;28;20313;-84
2021/09/09 08:11:44;;;;;;;14.10;8.37;;;;;;;;;;4966421;28;20210;-83
2021/09/09 08:14:12;;;;;;;13.77;8.50;;;;;;;;;;4970516;28;20209;-83
2021/09/09 08:16:39;;;;;;;16.30;8.20;;;;;;;;;;4978181;28;20284;-83
2021/09/09 08:19:07;;;;;;;16.33;8.63;;;;;;;;;;4970060;28;20265;-84
2021/09/09 08:21:35;;;;;;;12.37;7.37;;;;;;;;;;4970046;28;20229;-84
2021/09/09 08:24:02;;;;;;;14.88;7.28;;;;;;;;;;4985154;28;20213;-84
2021/09/09 08:26:29;;;;;;;21.98;8.27;;;;;;;;;;4983552;28;20638;-84
2021/09/09 08:28:56;;;;;;;16.25;7.78;;;;;;;;;;4987709;28;20232;-84
2021/09/09 08:31:23;;;;;;;12.15;7.82;;;;;;;;;;4989297;28;20242;-85
2021/09/09 08:33:51;;;;;;;15.15;8.60;;;;;;;;;;4983879;28;20621;-86
2021/09/09 08:36:21;;;;;;;12.80;7.70;;;;;;;;;;4984088;28;20256;-84
2021/09/09 08:38:48;;;;;;;16.88;8.07;;;;;;;;;;4979389;28;20224;-84
2021/09/09 08:41:16;;;;;;;11.98;7.30;;;;;;;;;;4977373;28;20249;-84
2021/09/09 08:43:43;;;;;;;12.45;7.88;;;;;;;;;;4976705;28;20238;-85
2021/09/09 08:46:11;;;;;;;12.68;8.63;;;;;;;;;;4970296;28;20217;-84
2021/09/09 08:48:40;;;;;;;14.30;7.82;;;;;;;;;;4978701;28;20704;-85
2021/09/09 08:51:07;;;;;;;14.18;7.10;;;;;;;;;;4982405;28;20205;-86
2021/09/09 08:53:36;;;;;;;14.35;7.72;;;;;;;;;;4980882;28;20242;-84
2021/09/09 08:56:03;;;;;;;13.43;8.00;;;;;;;;;;4986997;28;20202;-85
2021/09/09 08:58:33;;;;;;;18.13;7.80;;;;;;;;;;4983311;28;20229;-85
2021/09/09 09:01:07;;;;;;;14.40;8.10;;;;;;;;;;4976909;28;20233;-85
2021/09/09 09:06:38;;;;;;;18.13;8.67;;;;;;;;;;4985413;28;20193;-84
2021/09/09 09:09:13;;;;;;;15.97;8.40;;;;;;;;;;4984319;28;20221;-83
2021/09/09 09:11:41;;;;;;;14.10;8.10;;;;;;;;;;5001012;28;20192;-82
2021/09/09 09:14:09;;;;;;;17.80;8.83;;;;;;;;;;4995947;28;20250;-82
2021/09/09 09:16:37;;;;;;;17.27;8.43;;;;;;;;;;4985128;28;20329;-82
2021/09/09 09:19:10;;;;;;;13.67;8.00;;;;;;;;;;4971723;28;20270;-83
2021/09/09 09:21:41;;;;;;;19.60;8.60;;;;;;;;;;4980726;28;20219;-84
2021/09/09 09:24:10;;;;;;;15.27;8.67;;;;;;;;;;4981515;28;20220;-85
2021/09/09 09:26:37;;;;;;;13.73;8.37;;;;;;;;;;4981174;28;20296;-82
2021/09/09 09:29:04;;;;;;;13.63;7.73;;;;;;;;;;4983326;28;20302;-85
2021/09/09 09:31:33;;;;;;;12.40;8.43;;;;;;;;;;4987347;28;20201;-84
2021/09/09 09:34:01;;;;;;;13.47;8.20;;;;;;;;;;4982587;28;20210;-84
2021/09/09 09:36:29;;;;;;;16.33;8.73;;;;;;;;;;4986572;28;20209;-84
2021/09/09 09:38:58;;;;;;;13.80;8.40;;;;;;;;;;4981375;28;20231;-84
2021/09/09 09:41:29;;;;;;;16.27;8.57;;;;;;;;;;4977170;28;20210;-84
2021/09/09 09:43:59;;;;;;;14.87;7.87;;;;;;;;;;4976690;28;20214;-84
2021/09/09 09:46:33;;;;;;;13.10;8.30;;;;;;;;;;4979751;28;20218;-84
2021/09/09 09:49:19;;;;;;;20.87;7.97;;;;;;;;;;4984970;28;20292;-83
2021/09/09 09:51:47;;;;;;;15.53;8.00;;;;;;;;;;4976679;28;20285;-84
2021/09/09 09:54:15;;;;;;;13.73;8.47;;;;;;;;;;4979312;28;20238;-83
2021/09/09 09:56:44;;;;;;;12.07;7.90;;;;;;;;;;4975843;28;20636;-84
2021/09/09 09:59:11;;;;;;;13.63;8.17;;;;;;;;;;4980706;28;20832;-81
2021/09/09 10:01:39;;;;;;;14.60;8.50;;;;;;;;;;4982699;28;20240;-84
2021/09/09 10:04:07;;;;;;;14.63;7.60;;;;;;;;;;4983044;28;20286;-83
2021/09/09 10:06:35;;;;;;;13.37;8.07;;;;;;;;;;4983634;28;20247;-84
2021/09/09 10:09:02;;;;;;;13.87;7.90;;;;;;;;;;4980876;28;20220;-84
2021/09/09 10:11:30;;;;;;;14.57;8.00;;;;;;;;;;4977881;28;20578;-83
2021/09/09 10:13:59;;;;;;;14.90;7.73;;;;;;;;;;4980286;28;20246;-84
2021/09/09 10:16:28;;;;;;;15.10;8.10;;;;;;;;;;4985989;28;20271;-84
2021/09/09 10:18:55;;;;;;;10.93;7.43;;;;;;;;;;4983393;28;20768;-85
2021/09/09 10:21:39;;;;;;;12.37;7.90;;;;;;;;;;4975159;28;20292;-85
2021/09/09 10:24:13;;;;;;;14.17;7.87;;;;;;;;;;4982253;28;20208;-84
2021/09/09 10:26:41;;;;;;;11.23;7.87;;;;;;;;;;4986925;28;20323;-85
2021/09/09 10:29:29;;;;;;;14.93;7.93;;;;;;;;;;4989611;28;20221;-85
2021/09/09 10:31:56;;;;;;;12.57;7.87;;;;;;;;;;4986316;28;20573;-85
2021/09/09 10:34:24;;;;;;;15.90;8.03;;;;;;;;;;4987864;28;20331;-85
2021/09/09 10:36:54;;;;;;;17.67;8.47;;;;;;;;;;4986669;28;20227;-84
2021/09/09 10:39:22;;;;;;;14.80;7.90;;;;;;;;;;4987518;28;20207;-85
2021/09/09 10:41:49;;;;;;;13.53;7.60;;;;;;;;;;4986267;28;20668;-86
2021/09/09 10:44:18;;;;;;;11.23;7.50;;;;;;;;;;4986580;28;20209;-83
2021/09/09 10:46:47;;;;;;;11.90;8.00;;;;;;;;;;4989658;28;20221;-83
2021/09/09 10:49:16;;;;;;;12.10;7.60;;;;;;;;;;5006036;28;20316;-83
2021/09/09 10:52:02;;;;;;;9.97;7.27;;;;;;;;;;4999965;28;20194;-82
2021/09/09 10:54:29;;;;;;;10.73;7.47;;;;;;;;;;4990045;28;20256;-85
2021/09/09 10:57:12;;;;;;;13.33;8.03;;;;;;;;;;4987615;28;20312;-84
2021/09/09 10:59:48;;;;;;;12.27;8.00;;;;;;;;;;4989045;28;20223;-85
2021/09/09 11:02:15;;;;;;;13.00;7.47;;;;;;;;;;4986542;28;20635;-85
2021/09/09 11:04:44;;;;;;;21.60;8.00;;;;;;;;;;4982183;28;20209;-85
2021/09/09 11:07:21;;;;;;;11.73;7.73;;;;;;;;;;4988820;28;20331;-85
2021/09/09 11:09:48;;;;;;;15.70;8.60;;;;;;;;;;4982038;28;20226;-83
2021/09/09 11:12:15;;;;;;;13.27;7.23;;;;;;;;;;4987952;28;20285;-84
2021/09/09 11:14:42;;;;;;;13.47;7.40;;;;;;;;;;4982841;28;20202;-86
2021/09/09 11:17:18;;;;;;;17.80;7.40;;;;;;;;;;4984350;28;20225;-84
2021/09/09 11:19:45;;;;;;;10.83;7.27;;;;;;;;;;4983874;28;20205;-85
2021/09/09 11:22:12;;;;;;;13.70;7.63;;;;;;;;;;4959338;28;20202;-84
2021/09/09 11:24:39;;;;;;;12.53;6.97;;;;;;;;;;4952066;28;20954;-84
2021/09/09 11:27:14;;;;;;;13.60;6.73;;;;;;;;;;4954618;28;20321;-83
2021/09/09 11:29:41;;;;;;;14.23;7.10;;;;;;;;;;4970634;28;20708;-84
2021/09/09 11:32:09;;;;;;;10.67;6.70;;;;;;;;;;4978222;28;20753;-85
2021/09/09 11:34:37;;;;;;;10.33;6.73;;;;;;;;;;4977981;28;20218;-83
2021/09/09 11:37:05;;;;;;;11.27;6.40;;;;;;;;;;4976973;28;20229;-84
2021/09/09 11:39:35;;;;;;;8.50;5.97;;;;;;;;;;4975811;28;20237;-84
2021/09/09 11:42:04;;;;;;;9.80;6.37;;;;;;;;;;4979110;28;20622;-84
2021/09/09 11:44:32;;;;;;;13.80;6.63;;;;;;;;;;4979876;28;20214;-84
2021/09/09 11:47:00;;;;;;;9.53;6.30;;;;;;;;;;4968795;28;20244;-84
2021/09/09 11:49:29;;;;;;;8.20;5.40;;;;;;;;;;4974011;28;20226;-84
2021/09/09 11:51:59;;;;;;;8.37;5.97;;;;;;;;;;4975866;28;20304;-83
2021/09/09 11:54:27;;;;;;;11.93;6.30;;;;;;;;;;4974285;28;20225;-83
2021/09/09 11:57:03;;;;;;;9.87;6.07;;;;;;;;;;4972454;28;20275;-85
2021/09/09 11:59:31;;;;;;;10.60;5.43;;;;;;;;;;4973575;28;20643;-84
2021/09/09 12:02:05;;;;;;;12.63;6.00;;;;;;;;;;4970941;28;20227;-86
2021/09/09 12:04:32;;;;;;;16.60;6.40;;;;;;;;;;4979856;28;20768;-86
2021/09/09 12:07:01;;;;;;;11.33;5.70;;;;;;;;;;4974951;28;20222;-85
2021/09/09 12:09:31;;;;;;;14.30;6.30;;;;;;;;;;4975338;28;20315;-84
2021/09/09 12:12:05;;;;;;;9.03;5.83;;;;;;;;;;4976456;28;20329;-85
2021/09/09 12:14:33;;;;;;;9.13;5.83;;;;;;;;;;4981891;28;20209;-84
2021/09/09 12:17:11;;;;;;;8.77;5.33;;;;;;;;;;4981291;28;20289;-85
2021/09/09 12:19:58;;;;;;;9.13;6.20;;;;;;;;;;4982897;28;20226;-85
2021/09/09 12:22:46;;;;;;;10.70;5.47;;;;;;;;;;4992872;28;20178;-82
2021/09/09 12:25:17;;;;;;;13.43;6.57;;;;;;;;;;4997412;28;20214;-82
2021/09/09 12:27:54;;;;;;;11.13;6.10;;;;;;;;;;4991198;28;20320;-84
2021/09/09 12:30:21;;;;;;;11.23;6.17;;;;;;;;;;4975733;28;20960;-84
2021/09/09 12:32:49;;;;;;;8.53;5.83;;;;;;;;;;4978811;28;20211;-84
2021/09/09 12:35:17;;;;;;;11.03;6.47;;;;;;;;;;4977472;28;20614;-84
2021/09/09 12:37:44;;;;;;;11.50;5.73;;;;;;;;;;4986612;28;20661;-84
2021/09/09 12:40:12;;;;;;;14.17;6.20;;;;;;;;;;4983500;28;20695;-85
2021/09/09 12:42:40;;;;;;;11.33;6.43;;;;;;;;;;4982580;28;20288;-84
2021/09/09 12:45:09;;;;;;;8.20;5.80;;;;;;;;;;4978486;28;20220;-84
2021/09/09 12:47:36;;;;;;;10.50;5.93;;;;;;;;;;4997209;28;20827;-84
2021/09/09 12:50:24;;;;;;;8.97;5.87;;;;;;;;;;5000443;28;20226;-83
2021/09/09 12:52:54;;;;;;;11.67;5.90;;;;;;;;;;4980736;28;20296;-85
2021/09/09 12:55:22;;;;;;;7.73;5.80;;;;;;;;;;4977990;28;20301;-84
2021/09/09 12:57:50;;;;;;;13.23;5.90;;;;;;;;;;4980839;28;20269;-84
2021/09/09 13:00:17;;;;;;;12.27;6.27;;;;;;;;;;4981885;28;20205;-84
2021/09/09 13:02:44;;;;;;;13.17;6.03;;;;;;;;;;4978902;28;20310;-85
2021/09/09 13:05:13;;;;;;;12.23;6.20;;;;;;;;;;4978273;28;20269;-85
2021/09/09 13:07:40;;;;;;;10.97;5.70;;;;;;;;;;4981810;28;20242;-84
2021/09/09 13:10:08;;;;;;;14.10;6.30;;;;;;;;;;4975861;28;20677;-85
2021/09/09 13:12:35;;;;;;;11.90;5.60;;;;;;;;;;4981095;28;20662;-85
2021/09/09 13:15:04;;;;;;;9.20;5.60;;;;;;;;;;4975985;28;20203;-82
2021/09/09 13:17:32;;;;;;;11.67;5.97;;;;;;;;;;4977572;28;20225;-84
2021/09/09 13:19:59;;;;;;;11.87;6.60;;;;;;;;;;4979527;28;20862;-84
2021/09/09 13:22:26;;;;;;;12.73;6.30;;;;;;;;;;4978747;28;20205;-85
2021/09/09 13:24:53;;;;;;;10.60;6.37;;;;;;;;;;4981261;28;20231;-84
2021/09/09 13:27:20;;;;;;;9.60;5.90;;;;;;;;;;4983849;28;20472;-85
2021/09/09 13:29:48;;;;;;;15.53;6.50;;;;;;;;;;4973377;28;20701;-85
2021/09/09 13:32:16;;;;;;;17.00;6.70;;;;;;;;;;4979567;28;20270;-86
2021/09/09 13:34:43;;;;;;;15.00;6.13;;;;;;;;;;4975777;28;20215;-84
2021/09/09 13:37:11;;;;;;;15.40;6.27;;;;;;;;;;4978548;28;20677;-85
2021/09/09 13:39:38;;;;;;;9.87;6.30;;;;;;;;;;4978767;28;20205;-83
2021/09/09 13:42:07;;;;;;;15.83;7.17;;;;;;;;;;4976436;28;20285;-86
2021/09/09 13:44:34;;;;;;;8.83;6.30;;;;;;;;;;4975896;28;20233;-86
2021/09/09 13:47:01;;;;;;;9.03;5.97;;;;;;;;;;4974884;28;20676;-87
2021/09/09 13:49:30;;;;;;;10.40;6.10;;;;;;;;;;4979557;28;20234;-85
2021/09/09 13:51:57;;;;;;;12.17;6.00;;;;;;;;;;4982299;28;20234;-85
2021/09/09 13:54:24;;;;;;;9.73;6.40;;;;;;;;;;4981806;28;20225;-84
2021/09/09 13:56:51;;;;;;;10.20;6.03;;;;;;;;;;4991415;28;20230;-85
2021/09/09 13:59:18;;;;;;;8.93;5.93;;;;;;;;;;4986017;28;20234;-85
2021/09/09 14:01:45;;;;;;;9.67;5.23;;;;;;;;;;4985163;28;20779;-85
2021/09/09 14:04:13;;;;;;;9.90;6.07;;;;;;;;;;4975788;28;20544;-84
2021/09/09 14:06:41;;;;;;;11.17;5.80;;;;;;;;;;4976648;28;20224;-86
2021/09/09 14:09:08;;;;;;;10.93;5.70;;;;;;;;;;4978354;28;20292;-84
2021/09/09 14:11:36;;;;;;;15.57;5.83;;;;;;;;;;4977795;28;20209;-86
2021/09/09 14:14:04;;;;;;;9.63;5.47;;;;;;;;;;4973373;28;20211;-85
2021/09/09 14:16:31;;;;;;;6.20;4.30;;;;;;;;;;4973517;28;20682;-85
2021/09/09 14:18:58;;;;;;;7.67;4.40;;;;;;;;;;4970955;28;20290;-86
2021/09/09 14:21:25;;;;;;;8.17;4.43;;;;;;;;;;4972777;28;20306;-85
2021/09/09 14:23:55;;;;;;;7.43;4.30;;;;;;;;;;4965981;28;20242;-85
2021/09/09 14:26:23;;;;;;;8.47;4.43;;;;;;;;;;4975908;28;20218;-85
2021/09/09 14:28:50;;;;;;;6.07;4.30;;;;;;;;;;4976976;28;20332;-84
2021/09/09 14:31:17;;;;;;;7.87;4.37;;;;;;;;;;4969495;28;20223;-85
2021/09/09 14:33:46;;;;;;;6.63;4.40;;;;;;;;;;4973036;28;20266;-85
2021/09/09 14:36:13;;;;;;;11.03;4.47;;;;;;;;;;4979767;28;20679;-85